createdAt,value
2019-06-15T00:01:22.806Z,14.07
2019-06-15T00:03:49.853Z,14.87
2019-06-15T00:06:18.629Z,13.83
2019-06-15T00:08:45.837Z,12.77
2019-06-15T00:11:12.847Z,15.27
2019-06-15T00:13:39.901Z,16.00
2019-06-15T00:16:06.947Z,15.67
2019-06-15T00:18:34.020Z,18.47
2019-06-15T00:21:01.087Z,16.63
2019-06-15T00:23:28.005Z,15.53
2019-06-15T00:25:54.992Z,18.80
2019-06-15T00:28:23.794Z,16.30
2019-06-15T00:30:50.808Z,21.27
2019-06-15T00:33:17.895Z,18.87
2019-06-15T00:35:44.870Z,17.80
2019-06-15T00:38:11.810Z,19.10
2019-06-15T00:40:38.857Z,17.70
2019-06-15T00:43:05.844Z,25.07
2019-06-15T00:45:32.821Z,20.13
2019-06-15T00:48:01.364Z,19.40
2019-06-15T00:50:28.348Z,19.97
2019-06-15T00:52:55.291Z,21.60
2019-06-15T00:55:23.575Z,17.80
2019-06-15T00:57:50.677Z,18.40
2019-06-15T01:00:17.803Z,18.47
2019-06-15T01:02:44.759Z,16.63
2019-06-15T01:05:13.849Z,16.37
2019-06-15T01:07:40.786Z,15.87
2019-06-15T01:10:08.059Z,18.47
2019-06-15T01:12:35.020Z,21.33
2019-06-15T01:15:02.177Z,16.33
2019-06-15T01:17:29.232Z,29.97
2019-06-15T01:19:56.241Z,22.80
2019-06-15T01:22:23.287Z,19.37
2019-06-15T01:25:04.729Z,24.97
2019-06-15T01:27:21.066Z,26.43
2019-06-15T01:32:31.659Z,21.07
2019-06-15T01:34:58.713Z,27.37
2019-06-15T01:37:25.660Z,27.83
2019-06-15T01:39:52.784Z,25.83
2019-06-15T01:42:19.756Z,26.00
2019-06-15T01:44:46.759Z,27.40
2019-06-15T01:47:13.749Z,27.00
2019-06-15T01:49:40.718Z,27.90
2019-06-15T01:52:07.684Z,28.43
2019-06-15T01:54:34.669Z,30.87
2019-06-15T01:57:01.600Z,27.50
2019-06-15T01:59:28.611Z,30.07
2019-06-15T02:01:55.542Z,29.93
2019-06-15T02:04:22.535Z,28.27
2019-06-15T02:06:51.277Z,31.60
2019-06-15T02:09:18.268Z,33.60
2019-06-15T02:11:45.305Z,29.17
2019-06-15T02:14:12.235Z,30.27
2019-06-15T02:16:39.216Z,30.33
2019-06-15T02:19:06.155Z,28.00
2019-06-15T02:21:33.087Z,31.57
2019-06-15T02:24:00.064Z,33.93
2019-06-15T02:26:26.998Z,31.97
2019-06-15T02:28:53.954Z,31.13
2019-06-15T02:31:22.223Z,28.83
2019-06-15T02:33:49.202Z,32.80
2019-06-15T02:36:16.119Z,33.53
2019-06-15T02:38:43.129Z,35.93
2019-06-15T02:41:10.386Z,38.57
2019-06-15T02:43:37.397Z,37.33
2019-06-15T02:46:04.376Z,43.77
2019-06-15T02:48:31.311Z,41.53
2019-06-15T02:50:58.753Z,42.60
2019-06-15T02:53:25.724Z,37.93
2019-06-15T02:56:01.972Z,38.73
2019-06-15T02:58:35.244Z,42.53
2019-06-15T03:01:20.484Z,41.77
2019-06-15T03:03:47.469Z,41.37
2019-06-15T03:06:14.819Z,40.03
2019-06-15T03:08:42.345Z,44.50
2019-06-15T03:11:09.747Z,42.10
2019-06-15T03:13:36.675Z,43.90
2019-06-15T03:16:04.507Z,43.10
2019-06-15T03:18:31.678Z,42.27
2019-06-15T03:20:58.957Z,48.73
2019-06-15T03:23:25.907Z,42.47
2019-06-15T03:26:04.576Z,47.03
2019-06-15T03:28:22.389Z,44.63
2019-06-15T03:30:49.441Z,48.57
2019-06-15T03:33:16.451Z,50.83
2019-06-15T03:35:43.375Z,49.30
2019-06-15T03:38:10.318Z,51.53
2019-06-15T03:40:37.305Z,49.80
2019-06-15T03:43:04.268Z,53.37
2019-06-15T03:45:31.205Z,55.30
2019-06-15T03:47:59.668Z,62.03
2019-06-15T03:50:26.599Z,54.27
2019-06-15T03:52:53.544Z,67.03
2019-06-15T03:55:20.534Z,59.73
2019-06-15T03:57:47.483Z,64.07
2019-06-15T04:00:54.557Z,65.27
2019-06-15T04:03:21.506Z,69.87
2019-06-15T04:05:48.445Z,68.70
2019-06-15T04:08:15.426Z,75.40
2019-06-15T04:10:42.353Z,65.27
2019-06-15T04:13:09.273Z,68.93
2019-06-15T04:15:36.591Z,73.23
2019-06-15T04:18:03.772Z,71.70
2019-06-15T04:20:30.721Z,75.13
2019-06-15T04:22:57.710Z,71.77
2019-06-15T04:25:24.643Z,72.80
2019-06-15T04:27:51.592Z,79.00
2019-06-15T04:30:18.902Z,72.60
2019-06-15T04:32:45.902Z,76.00
2019-06-15T04:35:16.384Z,85.23
2019-06-15T04:37:43.354Z,78.73
2019-06-15T04:40:10.579Z,78.50
2019-06-15T04:42:37.523Z,100.83
2019-06-15T04:45:05.742Z,96.07
2019-06-15T04:47:32.715Z,106.30
2019-06-15T04:49:59.763Z,98.23
2019-06-15T04:52:26.735Z,105.87
2019-06-15T04:54:53.716Z,106.67
2019-06-15T04:57:21.180Z,90.60
2019-06-15T04:59:48.112Z,104.33
2019-06-15T05:02:15.101Z,106.60
2019-06-15T05:04:42.154Z,113.13
2019-06-15T05:07:09.099Z,109.23
2019-06-15T05:09:36.193Z,111.10
2019-06-15T05:12:04.223Z,109.73
2019-06-15T05:14:31.162Z,111.57
2019-06-15T05:16:58.138Z,123.10
2019-06-15T05:19:25.065Z,121.90
2019-06-15T05:21:52.041Z,108.20
2019-06-15T05:24:18.973Z,104.90
2019-06-15T05:26:45.906Z,107.03
2019-06-15T05:29:13.161Z,97.07
2019-06-15T05:31:40.062Z,106.20
2019-06-15T05:34:07.062Z,105.43
2019-06-15T05:36:34.143Z,104.53
2019-06-15T05:39:03.219Z,101.50
2019-06-15T05:41:30.159Z,94.47
2019-06-15T05:44:05.022Z,103.53
2019-06-15T05:46:31.952Z,94.63
2019-06-15T05:48:58.860Z,90.17
2019-06-15T05:51:25.831Z,90.43
2019-06-15T05:53:52.773Z,92.67
2019-06-15T05:56:19.717Z,91.90
2019-06-15T05:58:46.712Z,90.53
2019-06-15T06:01:31.964Z,81.83
2019-06-15T06:03:59.150Z,74.57
2019-06-15T06:06:26.133Z,75.20
2019-06-15T06:08:53.077Z,77.77
2019-06-15T06:11:20.180Z,78.13
2019-06-15T06:13:47.158Z,77.80
2019-06-15T06:16:14.245Z,77.33
2019-06-15T06:18:41.283Z,68.63
2019-06-15T06:21:08.259Z,69.57
2019-06-15T06:23:35.206Z,71.50
2019-06-15T06:26:08.020Z,68.27
2019-06-15T06:28:34.983Z,59.33
2019-06-15T06:31:01.947Z,62.90
2019-06-15T06:33:28.924Z,63.73
2019-06-15T06:35:55.896Z,55.67
2019-06-15T06:38:24.447Z,55.30
2019-06-15T06:40:51.398Z,43.67
2019-06-15T06:43:18.388Z,49.93
2019-06-15T06:45:45.347Z,42.40
2019-06-15T06:48:12.296Z,41.77
2019-06-15T06:50:41.298Z,40.47
2019-06-15T06:53:08.157Z,41.67
2019-06-15T06:55:35.107Z,39.70
2019-06-15T06:58:03.671Z,33.27
2019-06-15T07:00:30.626Z,34.80
2019-06-15T07:02:57.655Z,35.63
2019-06-15T07:05:24.714Z,33.40
2019-06-15T07:07:51.674Z,31.00
2019-06-15T07:10:18.608Z,27.77
2019-06-15T07:12:45.605Z,26.27
2019-06-15T07:15:15.016Z,28.90
2019-06-15T07:17:42.001Z,21.23
2019-06-15T07:20:09.293Z,23.87
2019-06-15T07:22:36.420Z,23.03
2019-06-15T07:25:03.775Z,19.67
2019-06-15T07:27:30.914Z,18.93
2019-06-15T07:29:57.845Z,17.23
2019-06-15T07:32:24.805Z,18.57
2019-06-15T07:34:53.829Z,16.30
2019-06-15T07:37:20.795Z,19.20
2019-06-15T07:39:47.874Z,16.07
2019-06-15T07:42:14.896Z,15.27
2019-06-15T07:44:45.327Z,14.47
2019-06-15T07:47:27.793Z,14.53
2019-06-15T07:49:54.902Z,15.10
2019-06-15T07:52:21.852Z,14.40
2019-06-15T07:54:48.945Z,12.43
2019-06-15T07:57:15.883Z,20.73
2019-06-15T07:59:42.861Z,13.20
2019-06-15T08:02:09.826Z,12.03
2019-06-15T08:04:36.902Z,12.53
2019-06-15T08:07:05.239Z,12.53
2019-06-15T08:09:35.040Z,13.33
2019-06-15T08:12:02.001Z,16.83
2019-06-15T08:14:29.064Z,21.23
2019-06-15T08:16:56.141Z,38.50
2019-06-15T08:19:23.096Z,40.50
2019-06-15T08:21:50.082Z,45.07
2019-06-15T08:24:17.228Z,46.77
2019-06-15T08:26:44.192Z,42.47
2019-06-15T08:29:11.159Z,45.63
2019-06-15T08:31:38.138Z,45.07
2019-06-15T08:34:05.151Z,49.10
2019-06-15T08:36:32.085Z,46.23
2019-06-15T08:38:59.124Z,43.23
2019-06-15T08:41:26.057Z,38.53
2019-06-15T08:43:53.019Z,40.17
2019-06-15T08:46:20.057Z,43.40
2019-06-15T08:48:47.134Z,35.10
2019-06-15T08:51:14.103Z,37.07
2019-06-15T08:53:41.153Z,36.57
2019-06-15T08:56:08.128Z,21.57
2019-06-15T08:58:35.361Z,16.17
2019-06-15T09:01:02.410Z,16.27
2019-06-15T09:03:29.370Z,14.40
2019-06-15T09:05:56.320Z,14.83
2019-06-15T09:08:29.726Z,11.70
2019-06-15T09:10:56.690Z,13.53
2019-06-15T09:13:24.766Z,14.63
2019-06-15T09:15:52.374Z,11.00
2019-06-15T09:18:20.038Z,11.20
2019-06-15T09:20:48.282Z,8.53
2019-06-15T09:23:15.281Z,7.60
2019-06-15T09:25:42.260Z,24.93
2019-06-15T09:28:09.204Z,7.53
2019-06-15T09:30:36.251Z,7.13
2019-06-15T09:33:03.522Z,8.20
2019-06-15T09:35:30.517Z,5.57
2019-06-15T09:37:57.494Z,4.37
2019-06-15T09:40:24.465Z,7.13
2019-06-15T09:42:51.415Z,4.13
2019-06-15T09:45:18.455Z,4.97
2019-06-15T09:47:45.452Z,7.83
2019-06-15T09:50:12.714Z,4.50
2019-06-15T09:52:39.653Z,4.97
2019-06-15T09:55:06.921Z,7.10
2019-06-15T09:57:33.857Z,3.70
2019-06-15T10:00:00.857Z,3.73
2019-06-15T10:02:27.833Z,3.47
2019-06-15T10:04:54.826Z,3.03
2019-06-15T10:07:21.805Z,3.20
2019-06-15T10:09:48.757Z,4.40
2019-06-15T10:12:15.773Z,4.50
2019-06-15T10:14:42.736Z,6.70
2019-06-15T10:17:09.700Z,3.80
2019-06-15T10:19:36.666Z,3.90
2019-06-15T10:22:03.733Z,5.20
2019-06-15T10:24:30.643Z,4.80
2019-06-15T10:26:57.611Z,5.47
2019-06-15T10:29:24.578Z,4.90
2019-06-15T10:31:51.603Z,5.40
2019-06-15T10:34:18.594Z,7.13
2019-06-15T10:37:10.304Z,6.23
2019-06-15T10:39:38.356Z,5.50
2019-06-15T10:42:05.310Z,5.07
2019-06-15T10:44:32.309Z,6.50
2019-06-15T10:46:59.284Z,5.87
2019-06-15T10:49:26.271Z,6.33
2019-06-15T10:51:53.249Z,6.40
2019-06-15T10:54:20.245Z,5.73
2019-06-15T10:56:47.198Z,5.53
2019-06-15T10:59:17.671Z,6.30
2019-06-15T11:01:44.655Z,5.03
2019-06-15T11:04:13.397Z,11.43
2019-06-15T11:06:40.461Z,4.30
2019-06-15T11:09:07.830Z,5.67
2019-06-15T11:11:34.834Z,3.77
2019-06-15T11:14:01.921Z,6.13
2019-06-15T11:16:29.158Z,3.73
2019-06-15T11:18:56.128Z,2.40
2019-06-15T11:21:24.291Z,2.80
2019-06-15T11:23:51.267Z,2.97
2019-06-15T11:26:18.196Z,3.60
2019-06-15T11:28:46.278Z,2.90
2019-06-15T11:31:13.238Z,4.70
2019-06-15T11:33:40.325Z,2.60
2019-06-15T11:36:07.320Z,2.97
2019-06-15T11:38:34.321Z,4.23
2019-06-15T11:41:01.349Z,3.97
2019-06-15T11:43:28.350Z,4.43
2019-06-15T11:45:55.307Z,5.20
2019-06-15T11:48:22.426Z,3.73
2019-06-15T11:54:30.190Z,6.27
2019-06-15T11:56:57.156Z,5.93
2019-06-15T11:59:24.126Z,3.93
2019-06-15T12:01:51.106Z,5.03
2019-06-15T12:04:18.323Z,7.10
2019-06-15T12:07:43.592Z,4.57
2019-06-15T12:10:11.105Z,4.30
2019-06-15T12:12:38.048Z,7.10
2019-06-15T12:15:05.837Z,5.20
2019-06-15T12:17:32.834Z,6.83
2019-06-15T12:20:01.020Z,6.07
2019-06-15T12:25:06.910Z,5.27
2019-06-15T12:27:35.676Z,5.53
2019-06-15T12:30:03.152Z,5.57
2019-06-15T12:32:30.145Z,10.97
2019-06-15T12:34:57.111Z,5.00
2019-06-15T12:37:24.073Z,5.63
2019-06-15T12:39:51.069Z,5.63
2019-06-15T12:45:59.028Z,3.77
2019-06-15T12:48:26.007Z,5.17
2019-06-15T12:50:53.967Z,4.60
2019-06-15T12:53:20.931Z,3.73
2019-06-15T12:55:47.900Z,4.67
2019-06-15T12:58:14.901Z,4.13
2019-06-15T13:00:41.948Z,3.80
2019-06-15T13:03:08.891Z,3.80
2019-06-15T13:05:35.885Z,3.53
2019-06-15T13:08:03.101Z,4.70
2019-06-15T13:10:30.257Z,5.37
2019-06-15T13:12:57.338Z,4.03
2019-06-15T13:15:24.398Z,4.07
2019-06-15T13:17:51.358Z,3.93
2019-06-15T13:20:18.780Z,4.73
2019-06-15T13:22:45.743Z,4.07
2019-06-15T13:25:12.840Z,4.20
2019-06-15T13:27:39.842Z,4.07
2019-06-15T13:30:06.888Z,3.80
2019-06-15T13:32:33.862Z,3.80
2019-06-15T13:35:00.947Z,3.77
2019-06-15T13:37:41.298Z,5.40
2019-06-15T13:39:58.116Z,6.97
2019-06-15T13:42:25.207Z,5.80
2019-06-15T13:44:52.183Z,7.40
2019-06-15T13:47:19.131Z,4.77
2019-06-15T13:49:46.235Z,5.40
2019-06-15T13:52:13.982Z,7.13
2019-06-15T13:54:40.931Z,5.77
2019-06-15T13:57:07.935Z,8.23
2019-06-15T13:59:34.962Z,8.40
2019-06-15T14:02:01.901Z,7.37
2019-06-15T14:04:28.926Z,6.90
2019-06-15T14:06:55.888Z,7.50
2019-06-15T14:09:22.846Z,8.70
2019-06-15T14:11:49.821Z,10.70
2019-06-15T14:14:16.760Z,10.50
2019-06-15T14:16:43.704Z,7.83
2019-06-15T14:19:10.693Z,9.93
2019-06-15T14:21:37.629Z,9.73
2019-06-15T14:24:04.666Z,9.07
2019-06-15T14:26:31.625Z,10.63
2019-06-15T14:28:58.600Z,9.57
2019-06-15T14:31:25.620Z,8.20
2019-06-15T14:33:52.556Z,7.97
2019-06-15T14:36:19.614Z,8.67
2019-06-15T14:38:46.596Z,6.10
2019-06-15T14:41:13.717Z,5.57
2019-06-15T14:43:40.728Z,7.17
2019-06-15T14:46:08.931Z,7.00
2019-06-15T14:48:35.908Z,7.67
2019-06-15T14:51:03.012Z,6.10
2019-06-15T14:53:30.033Z,7.77
2019-06-15T14:55:56.955Z,8.37
2019-06-15T14:58:26.078Z,8.40
2019-06-15T15:00:52.843Z,10.13
2019-06-15T15:03:19.793Z,9.67
2019-06-15T15:05:46.769Z,9.60
2019-06-15T15:08:13.826Z,9.53
2019-06-15T15:10:41.065Z,14.53
2019-06-15T15:13:07.969Z,8.00
2019-06-15T15:15:36.423Z,7.23
2019-06-15T15:18:03.645Z,10.20
2019-06-15T15:20:30.585Z,8.33
2019-06-15T15:22:57.594Z,6.57
2019-06-15T15:25:31.991Z,6.43
2019-06-15T15:28:07.365Z,8.83
2019-06-15T15:30:38.289Z,7.97
2019-06-15T15:33:06.784Z,6.60
2019-06-15T15:35:33.990Z,29.70
2019-06-15T15:38:37.721Z,6.10
2019-06-15T15:41:06.775Z,5.83
2019-06-15T15:43:33.573Z,7.80
2019-06-15T15:49:41.513Z,4.80
2019-06-15T15:52:51.623Z,5.93
2019-06-15T15:55:18.856Z,5.07
2019-06-15T15:57:46.842Z,3.93
2019-06-15T16:01:09.655Z,5.23
2019-06-15T16:03:37.107Z,3.77
2019-06-15T16:06:04.180Z,4.73
2019-06-15T16:08:31.165Z,4.67
2019-06-15T16:10:58.164Z,9.13
2019-06-15T16:13:26.867Z,6.67
2019-06-15T16:15:54.060Z,2.90
2019-06-15T16:18:21.041Z,4.10
2019-06-15T16:20:47.971Z,5.07
2019-06-15T16:23:16.093Z,3.47
2019-06-15T16:25:43.368Z,3.13
2019-06-15T16:28:10.306Z,3.83
2019-06-15T16:31:00.470Z,4.43
2019-06-15T16:33:07.778Z,5.87
2019-06-15T16:35:36.154Z,4.57
2019-06-15T16:38:36.427Z,3.30
2019-06-15T16:41:02.671Z,3.07
2019-06-15T16:43:29.686Z,4.00
2019-06-15T16:45:57.055Z,4.67
2019-06-15T16:48:26.098Z,5.33
2019-06-15T16:50:53.262Z,4.10
2019-06-15T16:53:20.233Z,2.87
2019-06-15T16:55:47.416Z,3.10
2019-06-15T16:58:16.182Z,6.20
2019-06-15T17:00:43.249Z,5.73
2019-06-15T17:03:20.681Z,5.60
2019-06-15T17:05:39.130Z,3.73
2019-06-15T17:08:07.076Z,4.73
2019-06-15T17:10:56.099Z,3.60
2019-06-15T17:13:40.913Z,4.07
2019-06-15T17:16:07.915Z,5.37
2019-06-15T17:18:36.493Z,5.13
2019-06-15T17:21:03.748Z,6.10
2019-06-15T17:23:30.712Z,4.87
2019-06-15T17:25:57.758Z,5.77
2019-06-15T17:28:26.668Z,5.33
2019-06-15T17:30:56.223Z,4.10
2019-06-15T17:33:34.385Z,5.80
2019-06-15T17:35:58.977Z,8.70
2019-06-15T17:38:20.733Z,7.43
2019-06-15T17:40:47.762Z,6.10
2019-06-15T17:43:16.086Z,5.07
2019-06-15T17:45:43.329Z,5.00
2019-06-15T17:48:17.111Z,6.17
2019-06-15T17:50:44.000Z,5.00
2019-06-15T17:53:10.969Z,4.83
2019-06-15T17:55:38.083Z,4.83
2019-06-15T17:58:06.483Z,5.13
2019-06-15T18:00:41.515Z,4.97
2019-06-15T18:03:08.608Z,4.67
2019-06-15T18:05:41.855Z,5.10
2019-06-15T18:08:08.942Z,5.00
2019-06-15T18:10:36.337Z,5.00
2019-06-15T18:13:04.102Z,3.67
2019-06-15T18:19:46.975Z,5.03
2019-06-15T18:22:16.785Z,5.40
2019-06-15T18:24:43.027Z,4.70
2019-06-15T18:27:10.140Z,5.57
2019-06-15T18:29:37.269Z,4.93
2019-06-15T18:32:06.313Z,5.00
2019-06-15T18:34:33.191Z,6.33
2019-06-15T18:37:00.163Z,5.60
2019-06-15T18:39:27.130Z,7.10
2019-06-15T18:41:56.002Z,5.57
2019-06-15T18:44:26.951Z,7.27
2019-06-15T18:46:56.153Z,6.80
2019-06-15T18:49:22.974Z,6.53
2019-06-15T18:51:50.070Z,7.57
2019-06-15T18:54:17.034Z,6.37
2019-06-15T18:56:45.938Z,5.60
2019-06-15T18:59:12.699Z,6.80
2019-06-15T19:01:39.671Z,7.77
2019-06-15T19:04:08.158Z,6.53
2019-06-15T19:06:37.024Z,11.73
2019-06-15T19:09:07.082Z,9.17
2019-06-15T19:11:34.089Z,8.37
2019-06-15T19:14:01.209Z,8.73
2019-06-15T19:16:28.180Z,9.87
2019-06-15T19:18:56.681Z,10.30
2019-06-15T19:21:26.088Z,10.43
2019-06-15T19:23:52.770Z,10.70
2019-06-15T19:26:19.937Z,11.67
2019-06-15T19:28:47.075Z,9.97
2019-06-15T19:31:14.233Z,9.83
2019-06-15T19:33:41.351Z,11.40
2019-06-15T19:36:08.363Z,11.73
2019-06-15T19:38:36.164Z,14.03
2019-06-15T19:41:03.704Z,13.13
2019-06-15T19:43:30.641Z,14.13
2019-06-15T19:45:57.803Z,18.17
2019-06-15T19:48:26.831Z,15.17
2019-06-15T19:50:56.451Z,14.73
2019-06-15T19:53:22.863Z,15.47
2019-06-15T19:55:49.898Z,15.90
2019-06-15T19:58:16.899Z,15.70
2019-06-15T20:00:46.532Z,14.30
2019-06-15T20:03:12.735Z,16.23
2019-06-15T20:05:39.724Z,18.00
2019-06-15T20:08:07.286Z,17.13
2019-06-15T20:10:36.983Z,21.30
2019-06-15T20:13:03.295Z,17.93
2019-06-15T20:15:30.365Z,18.60
2019-06-15T20:17:57.347Z,17.83
2019-06-15T20:20:26.679Z,20.13
2019-06-15T20:22:55.971Z,18.40
2019-06-15T20:25:41.341Z,18.03
2019-06-15T20:28:08.344Z,16.17
2019-06-15T20:30:37.070Z,18.20
2019-06-15T20:33:04.409Z,18.40
2019-06-15T20:35:31.391Z,17.23
2019-06-15T20:37:58.411Z,16.63
2019-06-15T20:40:26.734Z,15.87
2019-06-15T20:42:56.501Z,17.23
2019-06-15T20:45:22.967Z,16.97
2019-06-15T20:47:50.052Z,17.27
2019-06-15T20:50:27.965Z,17.40
2019-06-15T20:52:47.198Z,18.10
2019-06-15T20:55:16.320Z,17.87
2019-06-15T20:57:45.967Z,18.67
2019-06-15T21:00:12.817Z,18.97
2019-06-15T21:02:39.897Z,18.93
2019-06-15T21:05:07.376Z,19.93
2019-06-15T21:07:36.135Z,17.13
2019-06-15T21:10:07.150Z,19.07
2019-06-15T21:12:37.277Z,20.03
2019-06-15T21:15:07.166Z,17.13
2019-06-15T21:17:33.956Z,17.83
2019-06-15T21:20:00.996Z,21.57
2019-06-15T21:22:28.016Z,19.40
2019-06-15T21:25:53.357Z,17.67
2019-06-15T21:28:20.761Z,17.90
2019-06-15T21:30:47.918Z,19.17
2019-06-15T21:33:15.007Z,18.03
2019-06-15T21:35:49.850Z,18.07
2019-06-15T21:38:11.915Z,15.87
2019-06-15T21:40:40.673Z,17.27
2019-06-15T21:43:07.674Z,16.93
2019-06-15T21:45:36.869Z,15.67
2019-06-15T21:48:06.550Z,17.73
2019-06-15T21:50:33.422Z,19.93
2019-06-15T21:53:00.659Z,20.07
2019-06-15T21:55:27.813Z,16.77
2019-06-15T21:57:56.415Z,17.63
2019-06-15T22:00:38.710Z,20.93
2019-06-15T22:03:08.903Z,18.77
2019-06-15T22:05:36.868Z,19.23
2019-06-15T22:08:06.485Z,19.13
2019-06-15T22:10:35.959Z,20.50
2019-06-15T22:13:02.551Z,20.73
2019-06-15T22:15:29.549Z,22.73
2019-06-15T22:17:56.464Z,20.87
2019-06-15T22:20:23.598Z,24.07
2019-06-15T22:22:50.558Z,25.63
2019-06-15T22:25:17.511Z,20.03
2019-06-15T22:27:46.902Z,19.90
2019-06-15T22:30:16.857Z,22.47
2019-06-15T22:32:43.409Z,22.47
2019-06-15T22:35:11.673Z,21.80
2019-06-15T22:37:38.678Z,22.47
2019-06-15T22:40:07.718Z,20.97
2019-06-15T22:42:37.484Z,21.50
2019-06-15T22:45:06.651Z,20.53
2019-06-15T22:47:36.151Z,22.00
2019-06-15T22:50:03.079Z,22.43
2019-06-15T22:52:31.888Z,21.57
2019-06-15T22:54:58.909Z,19.77
2019-06-15T22:57:26.190Z,19.03
2019-06-15T22:59:53.324Z,21.90
2019-06-15T23:02:20.318Z,23.13
2019-06-15T23:04:47.295Z,20.50
2019-06-15T23:07:16.203Z,23.93
2019-06-15T23:09:43.256Z,23.57
2019-06-15T23:12:10.200Z,22.97
2019-06-15T23:14:37.369Z,21.63
2019-06-15T23:17:07.177Z,24.80
2019-06-15T23:19:33.466Z,22.97
2019-06-15T23:22:00.589Z,22.10
2019-06-15T23:24:27.877Z,25.00
2019-06-15T23:26:58.191Z,23.33
2019-06-15T23:29:27.148Z,25.50
2019-06-15T23:31:57.026Z,20.90
2019-06-15T23:34:23.114Z,23.80
2019-06-15T23:36:57.032Z,26.53
2019-06-15T23:39:22.485Z,23.17
2019-06-15T23:41:49.451Z,24.87
2019-06-15T23:44:17.806Z,23.13
2019-06-15T23:46:46.940Z,25.10
2019-06-15T23:49:16.256Z,26.50
2019-06-15T23:51:42.625Z,26.10
2019-06-15T23:54:09.563Z,25.97
2019-06-15T23:56:36.970Z,23.80
2019-06-15T23:59:06.737Z,30.57
